sensor_id;sensor_type;location;lat;lon;timestamp;pressure;altitude;pressure_sealevel;temperature;humidity
16451;BME280;12243;42.708;23.310;2023-02-19T00:01:40;95317.75;;;7.20;66.83
16451;BME280;12243;42.708;23.310;2023-02-19T00:04:11;95318.16;;;7.13;67.90
16451;BME280;12243;42.708;23.310;2023-02-19T00:06:41;95316.31;;;7.15;67.76
16451;BME280;12243;42.708;23.310;2023-02-19T00:09:08;95310.66;;;7.36;66.81
16451;BME280;12243;42.708;23.310;2023-02-19T00:11:36;95294.16;;;7.37;66.59
16451;BME280;12243;42.708;23.310;2023-02-19T00:14:03;95300.81;;;7.41;66.62
16451;BME280;12243;42.708;23.310;2023-02-19T00:16:32;95294.59;;;7.56;64.71
16451;BME280;12243;42.708;23.310;2023-02-19T00:19:01;95292.31;;;7.52;65.12
16451;BME280;12243;42.708;23.310;2023-02-19T00:21:28;95302.06;;;7.48;65.38
16451;BME280;12243;42.708;23.310;2023-02-19T00:23:58;95295.22;;;7.47;65.87
16451;BME280;12243;42.708;23.310;2023-02-19T00:26:25;95288.59;;;7.43;65.85
16451;BME280;12243;42.708;23.310;2023-02-19T00:28:54;95290.44;;;7.41;66.84
16451;BME280;12243;42.708;23.310;2023-02-19T00:31:22;95285.16;;;7.30;66.62
16451;BME280;12243;42.708;23.310;2023-02-19T00:33:51;95294.06;;;7.38;66.52
16451;BME280;12243;42.708;23.310;2023-02-19T00:36:19;95288.56;;;7.30;67.10
16451;BME280;12243;42.708;23.310;2023-02-19T00:38:46;95288.78;;;7.40;67.02
16451;BME280;12243;42.708;23.310;2023-02-19T00:41:16;95276.97;;;7.36;66.69
16451;BME280;12243;42.708;23.310;2023-02-19T00:43:48;95278.09;;;7.45;65.68
16451;BME280;12243;42.708;23.310;2023-02-19T00:46:16;95271.78;;;7.49;65.17
16451;BME280;12243;42.708;23.310;2023-02-19T00:48:43;95266.50;;;7.50;65.55
16451;BME280;12243;42.708;23.310;2023-02-19T00:51:10;95260.28;;;7.40;65.53
16451;BME280;12243;42.708;23.310;2023-02-19T00:53:37;95253.41;;;7.39;66.57
16451;BME280;12243;42.708;23.310;2023-02-19T00:56:05;95260.19;;;7.29;67.29
16451;BME280;12243;42.708;23.310;2023-02-19T00:58:33;95255.50;;;7.34;67.42
16451;BME280;12243;42.708;23.310;2023-02-19T01:01:00;95259.00;;;7.20;67.35
16451;BME280;12243;42.708;23.310;2023-02-19T01:03:28;95256.84;;;7.27;66.77
16451;BME280;12243;42.708;23.310;2023-02-19T01:05:54;95266.38;;;7.26;67.25
16451;BME280;12243;42.708;23.310;2023-02-19T01:08:21;95264.19;;;7.20;67.53
16451;BME280;12243;42.708;23.310;2023-02-19T01:10:48;95266.06;;;7.31;66.43
16451;BME280;12243;42.708;23.310;2023-02-19T01:13:15;95276.97;;;7.36;66.89
16451;BME280;12243;42.708;23.310;2023-02-19T01:15:44;95266.38;;;7.39;65.81
16451;BME280;12243;42.708;23.310;2023-02-19T01:18:11;95264.84;;;7.36;66.01
16451;BME280;12243;42.708;23.310;2023-02-19T01:20:40;95259.66;;;7.36;65.45
16451;BME280;12243;42.708;23.310;2023-02-19T01:23:08;95253.94;;;7.31;65.00
16451;BME280;12243;42.708;23.310;2023-02-19T01:25:37;95250.63;;;7.16;66.68
16451;BME280;12243;42.708;23.310;2023-02-19T01:28:04;95257.44;;;7.18;67.06
16451;BME280;12243;42.708;23.310;2023-02-19T01:30:33;95265.97;;;7.20;66.75
16451;BME280;12243;42.708;23.310;2023-02-19T01:33:02;95262.63;;;7.18;66.77
16451;BME280;12243;42.708;23.310;2023-02-19T01:35:29;95262.63;;;7.18;66.75
16451;BME280;12243;42.708;23.310;2023-02-19T01:37:57;95270.91;;;7.10;67.50
16451;BME280;12243;42.708;23.310;2023-02-19T01:40:24;95275.84;;;7.00;67.48
16451;BME280;12243;42.708;23.310;2023-02-19T01:42:51;95288.47;;;6.92;67.65
16451;BME280;12243;42.708;23.310;2023-02-19T01:45:25;95301.56;;;7.03;67.82
16451;BME280;12243;42.708;23.310;2023-02-19T01:48:09;95299.06;;;7.02;67.82
16451;BME280;12243;42.708;23.310;2023-02-19T01:50:40;95301.75;;;7.00;68.73
16451;BME280;12243;42.708;23.310;2023-02-19T01:53:11;95295.63;;;6.88;68.38
16451;BME280;12243;42.708;23.310;2023-02-19T01:55:41;95300.69;;;6.90;68.00
16451;BME280;12243;42.708;23.310;2023-02-19T01:58:13;95310.13;;;6.91;68.94
16451;BME280;12243;42.708;23.310;2023-02-19T02:00:40;95297.75;;;6.82;68.95
16451;BME280;12243;42.708;23.310;2023-02-19T02:03:09;95299.34;;;6.84;68.07
16451;BME280;12243;42.708;23.310;2023-02-19T02:05:44;95306.09;;;6.87;68.86
16451;BME280;12243;42.708;23.310;2023-02-19T02:08:14;95305.84;;;6.90;68.49
16451;BME280;12243;42.708;23.310;2023-02-19T02:11:00;95302.69;;;6.72;69.20
16451;BME280;12243;42.708;23.310;2023-02-19T02:13:27;95297.81;;;6.67;69.87
16451;BME280;12243;42.708;23.310;2023-02-19T02:16:06;95298.13;;;6.63;70.03
16451;BME280;12243;42.708;23.310;2023-02-19T02:18:46;95301.91;;;6.57;69.73
16451;BME280;12243;42.708;23.310;2023-02-19T02:21:34;95306.75;;;6.49;70.67
16451;BME280;12243;42.708;23.310;2023-02-19T02:24:16;95302.59;;;6.47;70.34
16451;BME280;12243;42.708;23.310;2023-02-19T02:27:02;95309.03;;;6.54;70.95
16451;BME280;12243;42.708;23.310;2023-02-19T02:30:04;95296.22;;;6.52;70.15
16451;BME280;12243;42.708;23.310;2023-02-19T02:32:39;95304.50;;;6.57;69.97
16451;BME280;12243;42.708;23.310;2023-02-19T02:35:21;95297.25;;;6.62;69.90
16451;BME280;12243;42.708;23.310;2023-02-19T02:37:50;95305.06;;;6.48;70.66
16451;BME280;12243;42.708;23.310;2023-02-19T02:40:18;95310.06;;;6.51;70.83
16451;BME280;12243;42.708;23.310;2023-02-19T02:42:46;95320.50;;;6.50;71.54
16451;BME280;12243;42.708;23.310;2023-02-19T02:45:25;95313.00;;;6.59;70.13
16451;BME280;12243;42.708;23.310;2023-02-19T02:48:19;95312.41;;;6.68;69.55
16451;BME280;12243;42.708;23.310;2023-02-19T02:50:52;95312.59;;;6.65;70.46
16451;BME280;12243;42.708;23.310;2023-02-19T02:53:26;95306.84;;;6.75;69.96
16451;BME280;12243;42.708;23.310;2023-02-19T02:56:13;95311.84;;;6.78;70.07
16451;BME280;12243;42.708;23.310;2023-02-19T02:58:42;95305.78;;;6.64;70.19
16451;BME280;12243;42.708;23.310;2023-02-19T03:01:15;95314.81;;;6.72;70.66
16451;BME280;12243;42.708;23.310;2023-02-19T03:04:02;95304.88;;;6.51;70.36
16451;BME280;12243;42.708;23.310;2023-02-19T03:06:32;95310.41;;;6.59;71.40
16451;BME280;12243;42.708;23.310;2023-02-19T03:09:06;95315.41;;;6.48;71.25
16451;BME280;12243;42.708;23.310;2023-02-19T03:11:39;95310.25;;;6.48;71.05
16451;BME280;12243;42.708;23.310;2023-02-19T03:14:30;95299.06;;;6.48;71.65
16451;BME280;12243;42.708;23.310;2023-02-19T03:17:21;95308.97;;;6.41;71.70
16451;BME280;12243;42.708;23.310;2023-02-19T03:20:10;95306.38;;;6.41;71.93
16451;BME280;12243;42.708;23.310;2023-02-19T03:22:41;95310.63;;;6.56;70.46
16451;BME280;12243;42.708;23.310;2023-02-19T03:25:14;95319.38;;;6.54;70.28
16451;BME280;12243;42.708;23.310;2023-02-19T03:28:03;95330.44;;;6.70;69.41
16451;BME280;12243;42.708;23.310;2023-02-19T03:30:35;95337.72;;;6.78;69.17
16451;BME280;12243;42.708;23.310;2023-02-19T03:33:07;95335.00;;;6.66;69.93
16451;BME280;12243;42.708;23.310;2023-02-19T03:35:39;95340.53;;;6.60;70.40
16451;BME280;12243;42.708;23.310;2023-02-19T03:38:12;95345.22;;;6.68;69.92
16451;BME280;12243;42.708;23.310;2023-02-19T03:40:51;95344.97;;;6.58;70.69
16451;BME280;12243;42.708;23.310;2023-02-19T03:43:23;95342.53;;;6.42;71.13
16451;BME280;12243;42.708;23.310;2023-02-19T03:45:58;95350.72;;;6.49;70.31
16451;BME280;12243;42.708;23.310;2023-02-19T03:48:35;95342.78;;;6.52;70.66
16451;BME280;12243;42.708;23.310;2023-02-19T03:51:23;95349.91;;;6.76;68.91
16451;BME280;12243;42.708;23.310;2023-02-19T03:54:01;95351.59;;;6.77;68.31
16451;BME280;12243;42.708;23.310;2023-02-19T03:56:34;95358.13;;;6.82;68.29
16451;BME280;12243;42.708;23.310;2023-02-19T03:59:08;95359.25;;;7.05;67.48
16451;BME280;12243;42.708;23.310;2023-02-19T04:01:40;95351.50;;;7.18;67.30
16451;BME280;12243;42.708;23.310;2023-02-19T04:04:15;95355.59;;;7.35;66.71
16451;BME280;12243;42.708;23.310;2023-02-19T04:06:46;95355.28;;;7.27;67.22
16451;BME280;12243;42.708;23.310;2023-02-19T04:09:18;95361.50;;;7.24;67.51
16451;BME280;12243;42.708;23.310;2023-02-19T04:11:52;95359.34;;;7.31;67.19
16451;BME280;12243;42.708;23.310;2023-02-19T04:14:24;95361.53;;;7.37;67.60
16451;BME280;12243;42.708;23.310;2023-02-19T04:16:57;95366.41;;;7.42;67.94
16451;BME280;12243;42.708;23.310;2023-02-19T04:19:27;95366.41;;;7.42;67.51
16451;BME280;12243;42.708;23.310;2023-02-19T04:21:55;95368.19;;;7.54;67.78
16451;BME280;12243;42.708;23.310;2023-02-19T04:24:28;95369.66;;;7.58;67.10
16451;BME280;12243;42.708;23.310;2023-02-19T04:26:57;95369.47;;;7.74;66.87
16451;BME280;12243;42.708;23.310;2023-02-19T04:29:24;95366.88;;;7.86;66.30
16451;BME280;12243;42.708;23.310;2023-02-19T04:31:51;95366.78;;;7.88;66.36
16451;BME280;12243;42.708;23.310;2023-02-19T04:34:18;95363.38;;;8.00;65.98
16451;BME280;12243;42.708;23.310;2023-02-19T04:36:46;95376.13;;;8.03;65.58
16451;BME280;12243;42.708;23.310;2023-02-19T04:39:13;95372.59;;;8.04;65.79
16451;BME280;12243;42.708;23.310;2023-02-19T04:41:40;95368.22;;;8.18;65.27
16451;BME280;12243;42.708;23.310;2023-02-19T04:44:07;95370.81;;;8.18;65.44
16451;BME280;12243;42.708;23.310;2023-02-19T04:46:34;95373.00;;;8.24;65.36
16451;BME280;12243;42.708;23.310;2023-02-19T04:49:01;95370.81;;;8.30;65.65
16451;BME280;12243;42.708;23.310;2023-02-19T04:51:28;95370.31;;;8.38;65.49
16451;BME280;12243;42.708;23.310;2023-02-19T04:53:56;95368.44;;;8.40;65.14
16451;BME280;12243;42.708;23.310;2023-02-19T04:56:23;95373.22;;;8.46;65.01
16451;BME280;12243;42.708;23.310;2023-02-19T04:58:50;95371.13;;;8.51;64.66
16451;BME280;12243;42.708;23.310;2023-02-19T05:01:18;95370.94;;;8.54;64.69
16451;BME280;12243;42.708;23.310;2023-02-19T05:03:45;95367.47;;;8.67;63.93
16451;BME280;12243;42.708;23.310;2023-02-19T05:06:13;95375.03;;;8.70;63.44
16451;BME280;12243;42.708;23.310;2023-02-19T05:08:40;95386.09;;;8.85;62.39
16451;BME280;12243;42.708;23.310;2023-02-19T05:11:10;95387.59;;;8.76;62.92
16451;BME280;12243;42.708;23.310;2023-02-19T05:13:37;95389.38;;;8.75;63.11
16451;BME280;12243;42.708;23.310;2023-02-19T05:16:06;95400.56;;;8.76;62.72
16451;BME280;12243;42.708;23.310;2023-02-19T05:18:33;95393.94;;;8.72;62.58
16451;BME280;12243;42.708;23.310;2023-02-19T05:21:00;95393.75;;;8.49;63.06
16451;BME280;12243;42.708;23.310;2023-02-19T05:23:27;95395.63;;;8.22;63.45
16451;BME280;12243;42.708;23.310;2023-02-19T05:25:54;95386.91;;;7.97;64.49
16451;BME280;12243;42.708;23.310;2023-02-19T05:28:23;95399.22;;;7.81;65.35
16451;BME280;12243;42.708;23.310;2023-02-19T05:30:54;95397.06;;;7.75;65.98
16451;BME280;12243;42.708;23.310;2023-02-19T05:33:23;95402.09;;;7.63;66.63
16451;BME280;12243;42.708;23.310;2023-02-19T05:35:52;95406.97;;;7.55;67.07
16451;BME280;12243;42.708;23.310;2023-02-19T05:38:20;95414.22;;;7.50;66.78
16451;BME280;12243;42.708;23.310;2023-02-19T05:40:47;95417.34;;;7.55;66.59
16451;BME280;12243;42.708;23.310;2023-02-19T05:43:14;95418.00;;;7.72;66.51
16451;BME280;12243;42.708;23.310;2023-02-19T05:45:42;95420.28;;;7.76;66.69
16451;BME280;12243;42.708;23.310;2023-02-19T05:48:09;95415.59;;;7.69;67.44
16451;BME280;12243;42.708;23.310;2023-02-19T05:50:36;95422.38;;;7.84;66.67
16451;BME280;12243;42.708;23.310;2023-02-19T05:53:12;95413.66;;;7.98;65.96
16451;BME280;12243;42.708;23.310;2023-02-19T05:55:39;95427.16;;;8.16;65.16
16451;BME280;12243;42.708;23.310;2023-02-19T05:58:06;95431.84;;;8.10;65.20
16451;BME280;12243;42.708;23.310;2023-02-19T06:00:33;95428.94;;;8.28;64.39
16451;BME280;12243;42.708;23.310;2023-02-19T06:03:01;95429.41;;;8.47;63.15
16451;BME280;12243;42.708;23.310;2023-02-19T06:05:28;95431.53;;;8.53;63.24
16451;BME280;12243;42.708;23.310;2023-02-19T06:07:55;95447.75;;;8.70;62.64
16451;BME280;12243;42.708;23.310;2023-02-19T06:10:22;95441.25;;;8.88;61.54
16451;BME280;12243;42.708;23.310;2023-02-19T06:12:51;95448.34;;;8.86;61.87
16451;BME280;12243;42.708;23.310;2023-02-19T06:15:19;95450.81;;;9.00;62.16
16451;BME280;12243;42.708;23.310;2023-02-19T06:17:45;95460.38;;;9.00;61.30
16451;BME280;12243;42.708;23.310;2023-02-19T06:20:14;95456.06;;;9.12;61.21
16451;BME280;12243;42.708;23.310;2023-02-19T06:22:41;95463.13;;;9.10;60.88
16451;BME280;12243;42.708;23.310;2023-02-19T06:25:08;95460.91;;;9.29;60.14
16451;BME280;12243;42.708;23.310;2023-02-19T06:27:37;95461.09;;;9.26;59.63
16451;BME280;12243;42.708;23.310;2023-02-19T06:30:05;95455.81;;;9.27;59.82
16451;BME280;12243;42.708;23.310;2023-02-19T06:32:32;95462.84;;;9.38;59.40
16451;BME280;12243;42.708;23.310;2023-02-19T06:34:59;95461.50;;;9.33;59.32
16451;BME280;12243;42.708;23.310;2023-02-19T06:37:27;95470.66;;;9.38;59.70
16451;BME280;12243;42.708;23.310;2023-02-19T06:39:54;95459.56;;;9.47;58.81
16451;BME280;12243;42.708;23.310;2023-02-19T06:42:21;95463.38;;;9.54;58.71
16451;BME280;12243;42.708;23.310;2023-02-19T06:44:48;95466.31;;;9.50;58.59
16451;BME280;12243;42.708;23.310;2023-02-19T06:47:14;95475.16;;;9.47;58.82
16451;BME280;12243;42.708;23.310;2023-02-19T06:49:41;95466.66;;;9.45;59.37
16451;BME280;12243;42.708;23.310;2023-02-19T06:52:08;95468.59;;;9.54;59.33
16451;BME280;12243;42.708;23.310;2023-02-19T06:54:36;95470.75;;;9.61;58.73
16451;BME280;12243;42.708;23.310;2023-02-19T06:57:03;95470.31;;;9.67;58.68
16451;BME280;12243;42.708;23.310;2023-02-19T06:59:30;95483.38;;;9.78;58.91
16451;BME280;12243;42.708;23.310;2023-02-19T07:01:57;95479.38;;;9.85;58.49
16451;BME280;12243;42.708;23.310;2023-02-19T07:04:24;95485.34;;;9.98;58.46
16451;BME280;12243;42.708;23.310;2023-02-19T07:06:51;95486.78;;;10.02;58.49
16451;BME280;12243;42.708;23.310;2023-02-19T07:09:17;95481.56;;;10.02;58.31
16451;BME280;12243;42.708;23.310;2023-02-19T07:11:46;95482.53;;;10.13;58.59
16451;BME280;12243;42.708;23.310;2023-02-19T07:14:14;95488.72;;;10.23;58.49
16451;BME280;12243;42.708;23.310;2023-02-19T07:16:41;95478.19;;;10.24;58.46
16451;BME280;12243;42.708;23.310;2023-02-19T07:19:08;95475.28;;;10.29;58.38
16451;BME280;12243;42.708;23.310;2023-02-19T07:21:36;95463.13;;;10.41;58.31
16451;BME280;12243;42.708;23.310;2023-02-19T07:24:03;95456.84;;;10.55;58.06
16451;BME280;12243;42.708;23.310;2023-02-19T07:26:30;95460.88;;;10.70;57.78
16451;BME280;12243;42.708;23.310;2023-02-19T07:28:59;95447.97;;;10.91;56.98
16451;BME280;12243;42.708;23.310;2023-02-19T07:31:27;95455.53;;;11.05;56.27
16451;BME280;12243;42.708;23.310;2023-02-19T07:33:54;95456.75;;;11.12;56.88
16451;BME280;12243;42.708;23.310;2023-02-19T07:36:22;95450.91;;;11.31;56.66
16451;BME280;12243;42.708;23.310;2023-02-19T07:38:52;95441.16;;;11.44;56.55
16451;BME280;12243;42.708;23.310;2023-02-19T07:41:20;95447.72;;;11.60;55.98
16451;BME280;12243;42.708;23.310;2023-02-19T07:43:47;95448.84;;;11.78;55.96
16451;BME280;12243;42.708;23.310;2023-02-19T07:46:16;95449.78;;;11.88;55.28
16451;BME280;12243;42.708;23.310;2023-02-19T07:48:43;95441.63;;;12.03;55.57
16451;BME280;12243;42.708;23.310;2023-02-19T07:51:11;95444.25;;;12.24;54.08
16451;BME280;12243;42.708;23.310;2023-02-19T07:53:41;95439.09;;;12.33;54.64
16451;BME280;12243;42.708;23.310;2023-02-19T07:56:10;95437.03;;;12.58;53.80
16451;BME280;12243;42.708;23.310;2023-02-19T07:58:37;95439.84;;;12.66;53.46
16451;BME280;12243;42.708;23.310;2023-02-19T08:01:09;95437.44;;;12.84;52.80
16451;BME280;12243;42.708;23.310;2023-02-19T08:03:38;95443.03;;;13.10;52.07
16451;BME280;12243;42.708;23.310;2023-02-19T08:06:05;95441.41;;;13.19;50.59
16451;BME280;12243;42.708;23.310;2023-02-19T08:08:32;95440.63;;;13.28;50.74
16451;BME280;12243;42.708;23.310;2023-02-19T08:10:59;95441.19;;;13.31;50.22
16451;BME280;12243;42.708;23.310;2023-02-19T08:13:44;95437.66;;;13.52;49.76
16451;BME280;12243;42.708;23.310;2023-02-19T08:16:14;95445.09;;;13.47;48.38
16451;BME280;12243;42.708;23.310;2023-02-19T08:18:44;95446.44;;;13.41;49.05
16451;BME280;12243;42.708;23.310;2023-02-19T08:21:11;95437.91;;;13.49;48.71
16451;BME280;12243;42.708;23.310;2023-02-19T08:23:39;95434.78;;;13.65;48.51
16451;BME280;12243;42.708;23.310;2023-02-19T08:26:06;95437.09;;;13.58;48.18
16451;BME280;12243;42.708;23.310;2023-02-19T08:28:34;95436.69;;;13.53;48.55
16451;BME280;12243;42.708;23.310;2023-02-19T08:31:03;95434.09;;;13.53;48.30
16451;BME280;12243;42.708;23.310;2023-02-19T08:33:30;95433.94;;;13.64;48.48
16451;BME280;12243;42.708;23.310;2023-02-19T08:36:02;95435.31;;;13.88;47.60
16451;BME280;12243;42.708;23.310;2023-02-19T08:38:30;95433.25;;;14.01;48.00
16451;BME280;12243;42.708;23.310;2023-02-19T08:40:59;95431.88;;;14.06;47.54
16451;BME280;12243;42.708;23.310;2023-02-19T08:43:26;95424.97;;;14.15;47.26
16451;BME280;12243;42.708;23.310;2023-02-19T08:45:53;95423.03;;;14.37;47.40
16451;BME280;12243;42.708;23.310;2023-02-19T08:48:21;95423.53;;;14.60;46.76
16451;BME280;12243;42.708;23.310;2023-02-19T08:50:55;95410.78;;;14.74;46.10
16451;BME280;12243;42.708;23.310;2023-02-19T08:53:24;95411.91;;;14.72;46.77
16451;BME280;12243;42.708;23.310;2023-02-19T08:55:51;95400.00;;;14.77;46.81
16451;BME280;12243;42.708;23.310;2023-02-19T08:58:19;95399.94;;;14.97;46.07
16451;BME280;12243;42.708;23.310;2023-02-19T09:00:46;95399.53;;;15.19;45.68
16451;BME280;12243;42.708;23.310;2023-02-19T09:03:13;95400.59;;;15.27;45.47
16451;BME280;12243;42.708;23.310;2023-02-19T09:05:40;95399.13;;;15.42;45.16
16451;BME280;12243;42.708;23.310;2023-02-19T09:08:07;95403.63;;;15.49;45.11
16451;BME280;12243;42.708;23.310;2023-02-19T09:10:36;95395.22;;;15.46;45.00
16451;BME280;12243;42.708;23.310;2023-02-19T09:13:02;95384.97;;;15.53;45.97
16451;BME280;12243;42.708;23.310;2023-02-19T09:15:30;95385.78;;;15.53;45.75
16451;BME280;12243;42.708;23.310;2023-02-19T09:17:58;95368.38;;;15.52;45.60
16451;BME280;12243;42.708;23.310;2023-02-19T09:20:25;95371.97;;;15.51;44.62
16451;BME280;12243;42.708;23.310;2023-02-19T09:22:56;95370.63;;;15.47;45.51
16451;BME280;12243;42.708;23.310;2023-02-19T09:25:23;95375.28;;;15.53;45.39
16451;BME280;12243;42.708;23.310;2023-02-19T09:27:54;95377.63;;;15.56;45.13
16451;BME280;12243;42.708;23.310;2023-02-19T09:30:21;95379.66;;;15.62;45.53
16451;BME280;12243;42.708;23.310;2023-02-19T09:32:48;95378.19;;;15.50;46.15
16451;BME280;12243;42.708;23.310;2023-02-19T09:35:15;95372.25;;;15.48;45.60
16451;BME280;12243;42.708;23.310;2023-02-19T09:37:42;95368.38;;;15.52;45.48
16451;BME280;12243;42.708;23.310;2023-02-19T09:40:09;95368.53;;;15.51;45.76
16451;BME280;12243;42.708;23.310;2023-02-19T09:42:39;95364.78;;;15.53;45.66
16451;BME280;12243;42.708;23.310;2023-02-19T09:45:14;95376.25;;;15.34;46.03
16451;BME280;12243;42.708;23.310;2023-02-19T09:47:43;95369.97;;;15.45;45.91
16451;BME280;12243;42.708;23.310;2023-02-19T09:50:15;95368.09;;;15.55;46.07
16451;BME280;12243;42.708;23.310;2023-02-19T09:52:45;95360.59;;;15.60;46.27
16451;BME280;12243;42.708;23.310;2023-02-19T09:55:17;95355.84;;;15.64;45.81
16451;BME280;12243;42.708;23.310;2023-02-19T09:57:47;95348.16;;;15.80;45.77
16451;BME280;12243;42.708;23.310;2023-02-19T10:00:21;95342.59;;;16.09;44.73
16451;BME280;12243;42.708;23.310;2023-02-19T10:02:50;95329.00;;;16.40;44.38
16451;BME280;12243;42.708;23.310;2023-02-19T10:05:18;95329.03;;;16.74;42.89
16451;BME280;12243;42.708;23.310;2023-02-19T10:07:49;95331.25;;;16.95;42.04
16451;BME280;12243;42.708;23.310;2023-02-19T10:10:23;95313.03;;;16.67;41.70
16451;BME280;12243;42.708;23.310;2023-02-19T10:12:53;95313.56;;;16.45;42.77
16451;BME280;12243;42.708;23.310;2023-02-19T10:15:28;95310.00;;;16.46;42.40
16451;BME280;12243;42.708;23.310;2023-02-19T10:17:57;95298.78;;;16.44;42.08
16451;BME280;12243;42.708;23.310;2023-02-19T10:20:24;95300.44;;;16.45;41.51
16451;BME280;12243;42.708;23.310;2023-02-19T10:22:58;95299.69;;;16.27;41.55
16451;BME280;12243;42.708;23.310;2023-02-19T10:25:26;95286.50;;;16.18;42.28
16451;BME280;12243;42.708;23.310;2023-02-19T10:27:53;95273.81;;;16.40;41.80
16451;BME280;12243;42.708;23.310;2023-02-19T10:30:24;95268.38;;;16.76;41.11
16451;BME280;12243;42.708;23.310;2023-02-19T10:33:03;95263.38;;;16.56;40.90
16451;BME280;12243;42.708;23.310;2023-02-19T10:35:34;95257.41;;;16.46;41.16
16451;BME280;12243;42.708;23.310;2023-02-19T10:38:01;95253.28;;;16.78;40.69
16451;BME280;12243;42.708;23.310;2023-02-19T10:40:31;95256.22;;;16.83;40.53
16451;BME280;12243;42.708;23.310;2023-02-19T10:43:01;95253.31;;;17.02;40.59
16451;BME280;12243;42.708;23.310;2023-02-19T10:45:33;95235.91;;;17.18;39.39
16451;BME280;12243;42.708;23.310;2023-02-19T10:48:03;95224.38;;;17.10;39.84
16451;BME280;12243;42.708;23.310;2023-02-19T10:50:34;95217.47;;;17.09;40.03
16451;BME280;12243;42.708;23.310;2023-02-19T10:53:03;95219.25;;;17.01;39.62
16451;BME280;12243;42.708;23.310;2023-02-19T10:55:32;95207.28;;;16.98;39.78
16451;BME280;12243;42.708;23.310;2023-02-19T10:58:21;95208.22;;;16.81;40.03
16451;BME280;12243;42.708;23.310;2023-02-19T11:01:09;95205.59;;;16.81;40.49
16451;BME280;12243;42.708;23.310;2023-02-19T11:03:36;95198.03;;;16.86;40.35
16451;BME280;12243;42.708;23.310;2023-02-19T11:06:05;95201.34;;;16.88;40.08
16451;BME280;12243;42.708;23.310;2023-02-19T11:08:47;95199.19;;;16.92;39.73
16451;BME280;12243;42.708;23.310;2023-02-19T11:11:30;95192.28;;;16.90;39.53
16451;BME280;12243;42.708;23.310;2023-02-19T11:14:00;95183.91;;;16.95;39.87
16451;BME280;12243;42.708;23.310;2023-02-19T11:16:41;95180.13;;;17.06;39.51
16451;BME280;12243;42.708;23.310;2023-02-19T11:19:34;95171.38;;;17.46;39.21
16451;BME280;12243;42.708;23.310;2023-02-19T11:22:17;95162.13;;;17.67;38.60
16451;BME280;12243;42.708;23.310;2023-02-19T11:24:47;95162.31;;;17.57;38.25
16451;BME280;12243;42.708;23.310;2023-02-19T11:27:17;95144.72;;;17.49;38.47
16451;BME280;12243;42.708;23.310;2023-02-19T11:29:44;95146.69;;;17.55;38.56
16451;BME280;12243;42.708;23.310;2023-02-19T11:32:25;95148.19;;;17.58;38.09
16451;BME280;12243;42.708;23.310;2023-02-19T11:35:12;95133.78;;;17.85;37.30
16451;BME280;12243;42.708;23.310;2023-02-19T11:37:53;95136.47;;;17.77;37.56
16451;BME280;12243;42.708;23.310;2023-02-19T11:40:27;95127.56;;;17.78;37.82
16451;BME280;12243;42.708;23.310;2023-02-19T11:43:00;95118.66;;;17.87;37.65
16451;BME280;12243;42.708;23.310;2023-02-19T11:45:36;95115.34;;;17.85;36.45
16451;BME280;12243;42.708;23.310;2023-02-19T11:48:25;95106.09;;;17.97;37.12
16451;BME280;12243;42.708;23.310;2023-02-19T11:51:14;95110.91;;;18.25;36.36
16451;BME280;12243;42.708;23.310;2023-02-19T11:53:47;95108.78;;;18.51;35.69
16451;BME280;12243;42.708;23.310;2023-02-19T11:56:19;95108.06;;;18.57;35.68
16451;BME280;12243;42.708;23.310;2023-02-19T11:59:00;95097.94;;;18.69;34.88
16451;BME280;12243;42.708;23.310;2023-02-19T12:01:37;95100.00;;;18.82;35.04
16451;BME280;12243;42.708;23.310;2023-02-19T12:07:16;95076.97;;;18.76;34.34
16451;BME280;12243;42.708;23.310;2023-02-19T12:09:58;95073.97;;;18.56;34.72
16451;BME280;12243;42.708;23.310;2023-02-19T12:12:37;95074.19;;;18.46;34.66
16451;BME280;12243;42.708;23.310;2023-02-19T12:15:38;95075.13;;;18.53;34.49
16451;BME280;12243;42.708;23.310;2023-02-19T12:18:21;95064.34;;;18.63;34.25
16451;BME280;12243;42.708;23.310;2023-02-19T12:21:01;95059.06;;;18.63;34.30
16451;BME280;12243;42.708;23.310;2023-02-19T12:23:51;95054.88;;;18.77;34.18
16451;BME280;12243;42.708;23.310;2023-02-19T12:26:26;95046.03;;;19.08;34.11
16451;BME280;12243;42.708;23.310;2023-02-19T12:29:06;95036.13;;;19.39;33.46
16451;BME280;12243;42.708;23.310;2023-02-19T12:34:45;95038.78;;;19.69;32.54
16451;BME280;12243;42.708;23.310;2023-02-19T12:37:26;95036.34;;;19.67;32.68
16451;BME280;12243;42.708;23.310;2023-02-19T12:40:01;95025.16;;;19.87;31.85
16451;BME280;12243;42.708;23.310;2023-02-19T12:42:47;95015.03;;;19.90;31.88
16451;BME280;12243;42.708;23.310;2023-02-19T12:45:20;95013.69;;;19.80;31.65
16451;BME280;12243;42.708;23.310;2023-02-19T12:47:56;95003.03;;;19.58;31.91
16451;BME280;12243;42.708;23.310;2023-02-19T12:50:25;95003.25;;;19.57;32.17
16451;BME280;12243;42.708;23.310;2023-02-19T12:52:56;95000.31;;;19.66;31.98
16451;BME280;12243;42.708;23.310;2023-02-19T12:55:28;94990.94;;;19.79;32.12
16451;BME280;12243;42.708;23.310;2023-02-19T12:57:58;94984.22;;;19.97;31.56
16451;BME280;12243;42.708;23.310;2023-02-19T13:00:32;94980.59;;;19.98;31.03
16451;BME280;12243;42.708;23.310;2023-02-19T13:03:05;94971.72;;;20.06;31.63
16451;BME280;12243;42.708;23.310;2023-02-19T13:05:41;94970.16;;;20.12;31.54
16451;BME280;12243;42.708;23.310;2023-02-19T13:08:15;94961.59;;;20.10;31.51
16451;BME280;12243;42.708;23.310;2023-02-19T13:10:47;94955.16;;;20.19;31.01
16451;BME280;12243;42.708;23.310;2023-02-19T13:13:21;94957.91;;;20.11;31.50
16451;BME280;12243;42.708;23.310;2023-02-19T13:15:51;94958.03;;;19.81;31.37
16451;BME280;12243;42.708;23.310;2023-02-19T13:18:23;94957.75;;;19.61;31.46
16451;BME280;12243;42.708;23.310;2023-02-19T13:20:52;94943.53;;;19.62;31.61
16451;BME280;12243;42.708;23.310;2023-02-19T13:23:25;94939.63;;;19.73;31.47